Terminal Aerodrome Forecast
Issued by NWS

Home | Current Version | Previous Version | Text Only | Print | Product List | Glossary On
Versions: 1 2 3 4 5 6 7 8 9 10 11 12
650
FTUS46 KMTR 231727
TAFOAK
TAF
KOAK 231727Z 2318/2424 27007KT P6SM SCT200
     FM232100 30011KT P6SM FEW200
     FM240500 30008KT P6SM FEW200
     FM240800 32004KT P6SM FEW015 SCT200
     FM241500 30005KT P6SM SCT015 SCT200=

USA.gov is the U.S. government's official web portal to all federal, state and local government web resources and services.